Share

Phu Lien, Viet Nam

Noibai International (VVNB) Elev 36 ft | 21.22 °N, 105.81 °E | Change Station

Current weather conditions updated 21 minutes ago

Mostly Cloudy
Mostly Cloudy
82 °F
Feels Like 90 °F
N
8
Wind Variable Wind from ESE
Sunrise 5:30 AM
Sunset 6:14 PM
Moon Waning Gibbous

Today is forecast to be nearly the same temperature as yesterday. Late night thunderstorms tonight.

Pressure 29.74 in
Visibility 6.2 miles
Clouds Scattered Clouds 1700 ft
Mostly Cloudy 4000 ft
Heat Index 90 °F
Dew Point 75 °F
Humidity 79%
Rainfall 0.00 in
Snow Depth Not available.
UV 8 out of 16
Pollen Not available.
Air Quality Not available.
Flu Activity Not available.
METAR VVNB 210630Z 12007KT 9999 SCT017 BKN040 28/24 Q1007 NOSIG

More Conditions Fewer Conditions

Pressure 29.74 in
Visibility 6.2 miles
Clouds Scattered Clouds 1700 ft
Mostly Cloudy 4000 ft
Heat Index 90 °F
Dew Point 75 °F
Humidity 79%
Rainfall 0.00 in
Snow Depth Not available.
UV 8 out of 16
Pollen Not available.
Air Quality Not available.
Flu Activity Not available.
METAR VVNB 210630Z 12007KT 9999 SCT017 BKN040 28/24 Q1007 NOSIG

More Conditions Fewer Conditions

10-Day Weather Forecast

Almanac

Astronomy

Apr. 21, 2014 Rise Set
Actual Time 5:30 AM ICT 6:14 PM ICT
Civil Twilight 5:07 AM ICT 6:37 PM ICT
Nautical Twilight 4:41 AM ICT 7:03 PM ICT
Astronomical Twilight 4:13 AM ICT 7:31 PM ICT
Moon 11:57 PM ICT 10:33 AM ICT
Length of Visible Light 13h 29m
Length of Day
12h 43m
Tomorrow will be 1m 5s longer.
Waning Gibbous, 62% of the Moon is Illuminated
Today
Waning Gibbous
Apr 22
Last Quarter
Apr 29
New
May 6
First Quarter
May 14
Full

Yesterday's Extremes

Country Highs Country Lows

Community

  • Snowy Robin
    Snowy Robin
  • Sun Pillar and Geese
    Sun Pillar and Geese
  • Showers on the Way
    Showers on the Way
  • Easter Morning Fog
    Easter Morning Fog
  • Easter Dance
    Easter Dance

WunderPhotos

Upload Photos

1,703,570 photos uploaded!

WunderBlogs® & News

Nearby

Snow Depth

Not available.

Coastal Water Temperatures

Place Temperature
No Stations Reporting

Earthquake Activity

City Distance Mag. Time & Date
No recent earthquake activity has been reported nearby.
Minimum magnitude displayed is 2.5.

Nearby Weather Stations

There are no personal weather stations in this area.

What do you think?

We're not finished. Please let us know what you like, what you don't like, and what you are still missing.